Time;durP1;ratioP1;P1;durP2;ratioP2;P2;SDS_P1;SDS_P2;PMS_P1;PMS_P2;Temp;Humidity;BMP_temperature;BMP_pressure;BME280_temperature;BME280_humidity;BME280_pressure;Samples;Min_cycle;Max_cycle;Signal;HPM_P1;HPM_P2
2022/10/23 00:01:09;;;;;;;0.70;0.70;;;8.70;99.90;;;;;;5070887;28;20285;-73
2022/10/23 00:03:35;;;;;;;0.70;0.70;;;8.60;99.90;;;;;;5071502;28;20201;-73
2022/10/23 00:06:03;;;;;;;0.70;0.70;;;8.60;99.90;;;;;;5071347;28;20561;-73
2022/10/23 00:08:29;;;;;;;0.60;0.60;;;8.60;99.90;;;;;;5071163;28;20229;-74
2022/10/23 00:10:54;;;;;;;0.60;0.60;;;8.60;99.90;;;;;;5070705;28;20682;-73
2022/10/23 00:13:20;;;;;;;0.60;0.60;;;8.50;99.90;;;;;;5071359;28;20179;-74
2022/10/23 00:15:45;;;;;;;0.60;0.60;;;8.50;99.90;;;;;;5071307;28;20186;-74
2022/10/23 00:18:11;;;;;;;0.60;0.60;;;8.50;99.90;;;;;;5071364;28;20186;-74
2022/10/23 00:20:36;;;;;;;0.53;0.53;;;8.50;99.90;;;;;;5070752;28;20198;-74
2022/10/23 00:23:02;;;;;;;0.67;0.67;;;8.50;99.90;;;;;;5071010;28;20197;-74
2022/10/23 00:25:27;;;;;;;0.70;0.70;;;8.50;99.90;;;;;;5071232;28;20185;-74
2022/10/23 00:27:53;;;;;;;0.73;0.73;;;8.40;99.90;;;;;;5071000;28;20206;-74
2022/10/23 00:30:19;;;;;;;0.60;0.60;;;8.40;99.90;;;;;;5070403;28;20226;-74
2022/10/23 00:32:44;;;;;;;0.70;0.70;;;8.40;99.90;;;;;;5070624;28;20209;-74
2022/10/23 00:35:10;;;;;;;0.67;0.67;;;8.30;99.90;;;;;;5070483;28;20244;-74
2022/10/23 00:37:35;;;;;;;0.67;0.67;;;8.50;99.90;;;;;;5070878;28;20175;-74
2022/10/23 00:40:01;;;;;;;0.73;0.73;;;8.20;99.90;;;;;;5070272;28;20884;-74
2022/10/23 00:42:26;;;;;;;0.60;0.60;;;8.30;99.90;;;;;;5071025;28;20182;-74
2022/10/23 00:44:52;;;;;;;0.60;0.60;;;8.30;99.90;;;;;;5070683;28;20224;-74
2022/10/23 00:47:17;;;;;;;0.70;0.70;;;8.30;99.90;;;;;;5070643;28;20265;-74
2022/10/23 00:49:43;;;;;;;0.70;0.70;;;8.20;99.90;;;;;;5070354;28;20596;-74
2022/10/23 00:52:11;;;;;;;0.70;0.70;;;8.10;99.90;;;;;;5056171;28;20190;-73
2022/10/23 00:54:39;;;;;;;0.60;0.60;;;8.10;99.90;;;;;;5070735;28;20178;-74
2022/10/23 00:57:07;;;;;;;0.70;0.70;;;8.20;99.90;;;;;;5070607;28;20757;-74
2022/10/23 00:59:33;;;;;;;0.70;0.70;;;8.10;99.90;;;;;;5069802;28;20195;-74
2022/10/23 01:01:59;;;;;;;0.60;0.60;;;8.20;99.90;;;;;;5070478;28;20285;-74
2022/10/23 01:04:26;;;;;;;0.70;0.70;;;8.20;99.90;;;;;;5070622;28;20277;-74
2022/10/23 01:07:21;;;;;;;0.67;0.67;;;8.20;99.90;;;;;;5070126;28;20232;-74
2022/10/23 01:10:13;;;;;;;0.77;0.77;;;8.20;99.90;;;;;;5062952;28;20179;-74
2022/10/23 01:13:10;;;;;;;0.60;0.60;;;8.10;99.90;;;;;;5071248;28;20323;-74
2022/10/23 01:15:42;;;;;;;0.53;0.53;;;8.20;99.90;;;;;;5070808;28;20190;-74
2022/10/23 01:18:23;;;;;;;0.60;0.60;;;8.10;99.90;;;;;;5070229;28;20228;-74
2022/10/23 01:21:03;;;;;;;0.70;0.70;;;8.00;99.90;;;;;;5070243;28;20190;-73
2022/10/23 01:23:31;;;;;;;0.70;0.70;;;7.90;99.90;;;;;;5070372;28;20673;-73
2022/10/23 01:26:18;;;;;;;0.70;0.70;;;7.90;99.90;;;;;;5070421;28;20608;-74
2022/10/23 01:28:52;;;;;;;0.70;0.70;;;7.90;99.90;;;;;;5070521;28;20214;-73
2022/10/23 01:31:26;;;;;;;0.70;0.70;;;8.00;99.90;;;;;;5070013;28;20205;-73
2022/10/23 01:33:59;;;;;;;0.70;0.70;;;7.80;99.90;;;;;;5070487;28;20196;-74
2022/10/23 01:36:27;;;;;;;0.70;0.70;;;7.80;99.90;;;;;;5070281;28;20202;-74
2022/10/23 01:39:03;;;;;;;0.70;0.70;;;7.90;99.90;;;;;;5069881;28;20182;-74
2022/10/23 01:41:35;;;;;;;0.70;0.70;;;7.80;99.90;;;;;;5069865;28;20198;-73
2022/10/23 01:44:15;;;;;;;0.70;0.70;;;7.80;99.90;;;;;;5070217;28;20640;-73
2022/10/23 01:46:43;;;;;;;0.80;0.80;;;7.80;99.90;;;;;;5070214;28;20594;-73
2022/10/23 01:49:11;;;;;;;0.70;0.70;;;7.80;99.90;;;;;;5069785;28;20780;-73
2022/10/23 01:51:40;;;;;;;0.77;0.77;;;7.70;99.90;;;;;;5069935;28;20255;-74
2022/10/23 01:54:10;;;;;;;0.90;0.90;;;7.70;99.90;;;;;;5070116;28;20626;-74
2022/10/23 01:56:38;;;;;;;0.80;0.80;;;7.70;99.90;;;;;;5070107;28;20179;-74
2022/10/23 01:59:09;;;;;;;0.60;0.60;;;7.70;99.90;;;;;;5069755;28;20243;-74
2022/10/23 02:01:38;;;;;;;0.60;0.60;;;7.70;99.90;;;;;;5069645;28;20273;-74
2022/10/23 02:04:06;;;;;;;0.70;0.70;;;7.60;99.90;;;;;;5070017;28;20191;-74
2022/10/23 02:06:31;;;;;;;0.70;0.70;;;7.60;99.90;;;;;;5070026;28;20193;-74
2022/10/23 02:08:57;;;;;;;0.60;0.60;;;7.70;99.90;;;;;;5069973;28;20214;-73
2022/10/23 02:11:23;;;;;;;0.80;0.80;;;7.70;99.90;;;;;;5069549;28;20675;-74
2022/10/23 02:14:02;;;;;;;0.67;0.67;;;7.60;99.90;;;;;;5070178;28;20183;-74
2022/10/23 02:17:09;;;;;;;0.70;0.70;;;7.60;99.90;;;;;;5069773;28;20182;-73
2022/10/23 02:19:57;;;;;;;0.80;0.80;;;7.70;99.90;;;;;;5022972;28;20179;-74
2022/10/23 02:22:41;;;;;;;0.70;0.70;;;7.60;99.90;;;;;;5073700;28;20193;-74
2022/10/23 02:25:14;;;;;;;0.80;0.80;;;7.60;99.90;;;;;;5073471;28;20186;-73
2022/10/23 02:27:42;;;;;;;0.70;0.70;;;7.70;99.90;;;;;;5073267;28;20639;-73
2022/10/23 02:30:11;;;;;;;0.73;0.73;;;7.70;99.90;;;;;;5072516;28;20206;-73
2022/10/23 02:32:41;;;;;;;0.70;0.70;;;7.70;99.90;;;;;;5073064;28;20178;-73
2022/10/23 02:35:07;;;;;;;0.70;0.70;;;7.60;99.90;;;;;;5055171;28;20178;-74
2022/10/23 02:37:33;;;;;;;0.60;0.60;;;7.60;99.90;;;;;;5073328;28;20285;-73
2022/10/23 02:39:59;;;;;;;0.60;0.60;;;7.60;99.90;;;;;;5072566;28;20651;-72
2022/10/23 02:42:35;;;;;;;0.80;0.80;;;7.60;99.90;;;;;;5073125;28;20186;-73
2022/10/23 02:45:19;;;;;;;0.60;0.60;;;7.60;99.90;;;;;;5072950;28;20189;-73
2022/10/23 02:47:53;;;;;;;0.80;0.80;;;7.60;99.90;;;;;;5072727;28;20285;-73
2022/10/23 02:50:22;;;;;;;0.70;0.70;;;7.70;99.90;;;;;;5072432;28;20202;-73
2022/10/23 02:52:53;;;;;;;0.70;0.70;;;7.70;99.90;;;;;;5072858;28;20178;-73
2022/10/23 02:55:36;;;;;;;0.70;0.70;;;7.80;99.90;;;;;;5073046;28;20177;-73
2022/10/23 02:58:15;;;;;;;0.67;0.67;;;7.80;99.90;;;;;;5072818;28;20182;-73
2022/10/23 03:00:52;;;;;;;0.70;0.70;;;7.80;99.90;;;;;;5072013;28;20205;-75
2022/10/23 03:03:23;;;;;;;0.60;0.60;;;7.80;99.90;;;;;;5072782;28;20259;-75
2022/10/23 03:05:49;;;;;;;0.70;0.70;;;7.70;99.90;;;;;;5072790;28;20189;-75
2022/10/23 03:08:14;;;;;;;0.60;0.60;;;7.80;99.90;;;;;;5072547;28;20202;-74
2022/10/23 03:10:41;;;;;;;0.70;0.70;;;7.80;99.90;;;;;;5071778;28;20194;-75
2022/10/23 03:13:08;;;;;;;0.70;0.70;;;7.80;99.90;;;;;;5073028;28;20170;-74
2022/10/23 03:15:34;;;;;;;0.70;0.70;;;7.80;99.90;;;;;;5072476;28;20595;-75
2022/10/23 03:17:59;;;;;;;0.70;0.70;;;7.80;99.90;;;;;;5072536;28;20178;-74
2022/10/23 03:20:25;;;;;;;0.60;0.60;;;7.80;99.90;;;;;;5071773;28;20190;-74
2022/10/23 03:22:50;;;;;;;0.70;0.70;;;7.80;99.90;;;;;;5072716;28;20186;-75
2022/10/23 03:25:16;;;;;;;0.60;0.60;;;7.80;99.90;;;;;;5072189;28;20182;-74
2022/10/23 03:27:41;;;;;;;0.70;0.70;;;7.80;99.90;;;;;;5072277;28;20183;-74
2022/10/23 03:30:08;;;;;;;0.70;0.70;;;7.90;99.90;;;;;;5071130;28;20675;-74
2022/10/23 03:32:33;;;;;;;0.70;0.70;;;7.80;99.90;;;;;;5072303;28;20178;-74
2022/10/23 03:34:59;;;;;;;0.60;0.60;;;7.80;99.90;;;;;;5072059;28;20183;-73
2022/10/23 03:37:25;;;;;;;0.70;0.70;;;7.90;99.90;;;;;;5072209;28;20181;-74
2022/10/23 03:39:50;;;;;;;0.70;0.70;;;7.90;99.90;;;;;;5071381;28;20665;-74
2022/10/23 03:42:16;;;;;;;0.70;0.70;;;8.00;99.90;;;;;;5072085;28;20193;-75
2022/10/23 03:44:42;;;;;;;0.73;0.73;;;8.00;99.90;;;;;;5070808;28;20187;-74
2022/10/23 03:47:09;;;;;;;0.60;0.60;;;8.10;99.90;;;;;;5053394;28;20845;-75
2022/10/23 03:49:34;;;;;;;0.70;0.70;;;8.10;99.90;;;;;;5070734;28;20695;-74
2022/10/23 03:52:00;;;;;;;0.60;0.60;;;8.10;99.90;;;;;;5071565;28;20252;-74
2022/10/23 03:54:27;;;;;;;0.60;0.60;;;8.10;99.90;;;;;;5071684;28;20202;-74
2022/10/23 03:56:53;;;;;;;0.70;0.70;;;8.00;99.90;;;;;;5065055;28;20194;-74
2022/10/23 03:59:18;;;;;;;0.80;0.80;;;8.10;99.90;;;;;;5078032;28;20175;-74
2022/10/23 04:01:44;;;;;;;0.80;0.80;;;8.10;99.90;;;;;;5083828;28;20193;-74
2022/10/23 04:04:11;;;;;;;0.70;0.70;;;8.00;99.90;;;;;;5082143;28;20177;-74
2022/10/23 04:06:37;;;;;;;0.60;0.60;;;8.00;99.90;;;;;;5076158;28;20254;-75
2022/10/23 04:09:03;;;;;;;0.60;0.60;;;8.00;99.90;;;;;;5082751;28;20214;-74
2022/10/23 04:11:29;;;;;;;0.60;0.60;;;8.00;99.90;;;;;;5073021;28;20251;-74
2022/10/23 04:13:54;;;;;;;0.63;0.63;;;8.10;99.90;;;;;;5071286;28;20297;-74
2022/10/23 04:16:20;;;;;;;0.63;0.63;;;8.00;99.90;;;;;;5080561;28;20178;-74
2022/10/23 04:18:45;;;;;;;0.70;0.70;;;7.80;99.90;;;;;;5077296;28;20170;-75
2022/10/23 04:21:11;;;;;;;0.60;0.60;;;7.80;99.90;;;;;;5070473;28;20198;-75
2022/10/23 04:23:36;;;;;;;0.77;0.77;;;7.80;99.90;;;;;;5071039;28;20214;-75
2022/10/23 04:26:02;;;;;;;0.70;0.70;;;7.80;99.90;;;;;;5071132;28;20189;-75
2022/10/23 04:28:27;;;;;;;0.70;0.70;;;7.90;99.90;;;;;;5071332;28;20210;-75
2022/10/23 04:30:53;;;;;;;0.60;0.60;;;7.90;99.90;;;;;;5070364;28;20575;-74
2022/10/23 04:33:19;;;;;;;0.70;0.70;;;7.90;99.90;;;;;;5071231;28;20185;-75
2022/10/23 04:35:44;;;;;;;0.57;0.57;;;7.90;99.90;;;;;;5069266;28;20186;-75
2022/10/23 04:38:10;;;;;;;0.70;0.70;;;8.00;99.90;;;;;;5079097;28;20175;-75
2022/10/23 04:40:36;;;;;;;0.60;0.60;;;8.00;99.90;;;;;;5070516;28;20212;-75
2022/10/23 04:43:01;;;;;;;0.70;0.70;;;8.00;99.90;;;;;;5070327;28;20182;-75
2022/10/23 04:45:27;;;;;;;0.70;0.70;;;8.10;99.90;;;;;;5071016;28;20559;-75
2022/10/23 04:47:52;;;;;;;0.70;0.70;;;8.10;99.90;;;;;;5070809;28;20207;-75
2022/10/23 04:50:19;;;;;;;0.70;0.70;;;8.00;99.90;;;;;;5070426;28;20187;-75
2022/10/23 04:52:45;;;;;;;0.70;0.70;;;8.10;99.90;;;;;;5070606;28;20221;-75
2022/10/23 04:55:11;;;;;;;0.70;0.70;;;8.10;99.90;;;;;;5070683;28;20178;-75
2022/10/23 04:57:36;;;;;;;0.60;0.60;;;8.10;99.90;;;;;;5070748;28;20179;-75
2022/10/23 05:00:04;;;;;;;0.70;0.70;;;8.10;99.90;;;;;;5070699;28;20186;-75
2022/10/23 05:02:30;;;;;;;0.80;0.80;;;8.10;99.90;;;;;;5078678;28;20170;-75
2022/10/23 05:04:55;;;;;;;0.80;0.80;;;8.10;99.90;;;;;;5077737;28;20174;-75
2022/10/23 05:07:21;;;;;;;0.73;0.73;;;8.10;99.90;;;;;;5070631;28;20174;-75
2022/10/23 05:09:46;;;;;;;0.80;0.80;;;8.10;99.90;;;;;;5070490;28;20213;-74
2022/10/23 05:12:12;;;;;;;0.80;0.80;;;8.20;99.90;;;;;;5070551;28;20599;-75
2022/10/23 05:14:37;;;;;;;0.67;0.67;;;8.10;99.90;;;;;;5070712;28;20228;-75
2022/10/23 05:17:33;;;;;;;0.70;0.70;;;8.10;99.90;;;;;;5070749;28;20179;-75
2022/10/23 05:20:02;;;;;;;0.67;0.67;;;8.10;99.90;;;;;;5068484;28;20658;-75
2022/10/23 05:22:31;;;;;;;0.57;0.57;;;8.10;99.90;;;;;;5069889;28;20639;-75
2022/10/23 05:24:57;;;;;;;0.60;0.60;;;8.00;99.90;;;;;;5071058;28;20185;-74
2022/10/23 05:27:23;;;;;;;0.60;0.60;;;8.00;99.90;;;;;;5070652;28;20179;-74
2022/10/23 05:29:48;;;;;;;0.80;0.80;;;8.00;99.90;;;;;;5070021;28;20210;-75
2022/10/23 05:32:15;;;;;;;0.63;0.63;;;8.00;99.90;;;;;;5069736;28;20171;-74
2022/10/23 05:34:41;;;;;;;0.70;0.70;;;8.00;99.90;;;;;;5070685;28;20213;-75
2022/10/23 05:37:09;;;;;;;0.80;0.80;;;8.00;99.90;;;;;;5070780;28;20182;-75
2022/10/23 05:39:35;;;;;;;0.67;0.67;;;8.00;99.90;;;;;;5069415;28;20269;-76
2022/10/23 05:42:00;;;;;;;0.60;0.60;;;8.00;99.90;;;;;;5070329;28;20278;-75
2022/10/23 05:44:26;;;;;;;0.70;0.70;;;8.00;99.90;;;;;;5070044;28;20179;-75
2022/10/23 05:46:51;;;;;;;0.63;0.63;;;8.10;99.90;;;;;;5068930;28;20175;-75
2022/10/23 05:49:17;;;;;;;0.80;0.80;;;8.10;99.90;;;;;;5061705;28;20214;-73
2022/10/23 05:51:43;;;;;;;0.70;0.70;;;8.10;99.90;;;;;;5062730;28;20191;-73
2022/10/23 05:54:08;;;;;;;0.70;0.70;;;8.10;99.90;;;;;;5062026;28;20179;-73
2022/10/23 05:56:36;;;;;;;0.70;0.70;;;8.20;99.90;;;;;;5070748;28;20232;-73
2022/10/23 05:59:02;;;;;;;0.60;0.60;;;8.10;99.90;;;;;;5074112;28;20185;-73
2022/10/23 06:01:27;;;;;;;0.70;0.70;;;8.10;99.90;;;;;;5071739;28;20288;-73
2022/10/23 06:03:53;;;;;;;0.70;0.70;;;8.10;99.90;;;;;;5078072;28;20191;-73
2022/10/23 06:06:19;;;;;;;0.80;0.80;;;8.00;99.90;;;;;;5084190;28;20174;-73
2022/10/23 06:08:44;;;;;;;0.70;0.70;;;8.00;99.90;;;;;;5091367;28;20218;-73
2022/10/23 06:11:14;;;;;;;0.70;0.70;;;8.00;99.90;;;;;;5085114;28;20255;-74
2022/10/23 06:13:44;;;;;;;0.80;0.80;;;8.10;99.90;;;;;;5078441;28;20183;-73
2022/10/23 06:16:12;;;;;;;0.70;0.70;;;8.40;99.90;;;;;;5061061;28;20186;-73
2022/10/23 06:18:37;;;;;;;0.70;0.70;;;8.40;99.90;;;;;;5067828;28;20174;-73
2022/10/23 06:21:03;;;;;;;0.70;0.70;;;8.40;99.90;;;;;;5073275;28;20301;-72
2022/10/23 06:23:31;;;;;;;0.80;0.80;;;8.50;99.90;;;;;;5073182;28;20547;-72
2022/10/23 06:25:57;;;;;;;0.60;0.60;;;8.50;99.90;;;;;;5070201;28;20282;-72
2022/10/23 06:28:22;;;;;;;0.60;0.60;;;8.50;99.90;;;;;;5069528;28;20309;-73
2022/10/23 06:30:48;;;;;;;0.70;0.70;;;8.50;99.90;;;;;;5071262;28;20232;-73
2022/10/23 06:33:13;;;;;;;0.60;0.60;;;8.30;99.90;;;;;;5077739;28;20280;-73
2022/10/23 06:35:39;;;;;;;0.60;0.60;;;8.20;99.90;;;;;;5066322;28;20261;-72
2022/10/23 06:38:04;;;;;;;0.70;0.70;;;8.30;99.90;;;;;;5077945;28;20752;-73
2022/10/23 06:40:30;;;;;;;0.70;0.70;;;8.40;99.90;;;;;;5047768;28;20654;-73
2022/10/23 06:42:56;;;;;;;0.80;0.80;;;8.50;99.90;;;;;;5071932;28;20842;-73
2022/10/23 06:45:21;;;;;;;0.70;0.70;;;8.60;99.90;;;;;;5072112;28;20270;-73
2022/10/23 06:47:50;;;;;;;0.70;0.70;;;8.70;99.90;;;;;;5072925;28;20202;-73
2022/10/23 06:50:16;;;;;;;0.73;0.73;;;8.60;99.90;;;;;;5072274;28;20194;-72
2022/10/23 06:52:41;;;;;;;0.60;0.60;;;8.60;99.90;;;;;;5072414;28;20175;-73
2022/10/23 06:55:07;;;;;;;0.60;0.60;;;8.80;99.90;;;;;;5072486;28;20224;-72
2022/10/23 06:57:33;;;;;;;0.80;0.80;;;8.70;99.90;;;;;;5072267;28;20174;-72
2022/10/23 06:59:59;;;;;;;0.60;0.60;;;8.80;99.90;;;;;;5068922;28;20193;-73
2022/10/23 07:02:24;;;;;;;0.77;0.77;;;9.10;99.90;;;;;;5078475;28;20178;-73
2022/10/23 07:04:50;;;;;;;0.67;0.67;;;9.50;99.90;;;;;;5075625;28;20642;-72
2022/10/23 07:07:15;;;;;;;0.60;0.60;;;10.00;99.90;;;;;;5083822;28;20185;-77
2022/10/23 07:09:41;;;;;;;0.60;0.60;;;10.30;99.90;;;;;;5071942;28;20214;-76
2022/10/23 07:12:07;;;;;;;0.50;0.50;;;10.40;99.90;;;;;;5071334;28;20210;-76
2022/10/23 07:14:32;;;;;;;0.57;0.57;;;10.60;99.90;;;;;;5079316;28;20235;-76
2022/10/23 07:16:58;;;;;;;0.40;0.40;;;11.00;99.90;;;;;;5080632;28;20186;-76
2022/10/23 07:19:23;;;;;;;0.50;0.50;;;11.30;99.90;;;;;;5081134;28;20175;-77
2022/10/23 07:21:49;;;;;;;0.50;0.50;;;11.60;90.40;;;;;;5072002;28;20299;-77
2022/10/23 07:24:15;;;;;;;0.40;0.40;;;12.10;1.00;;;;;;5073708;28;20631;-77
2022/10/23 07:26:41;;;;;;;0.50;0.50;;;12.10;1.00;;;;;;5077968;28;20183;-77
2022/10/23 07:29:06;;;;;;;0.40;0.40;;;12.30;1.00;;;;;;5070050;28;20229;-78
2022/10/23 07:31:32;;;;;;;0.50;0.50;;;12.90;1.00;;;;;;5068167;28;20194;-79
2022/10/23 07:33:58;;;;;;;0.40;0.40;;;13.20;1.00;;;;;;5065681;28;20189;-78
2022/10/23 07:36:23;;;;;;;0.50;0.50;;;13.10;1.00;;;;;;5081049;28;20265;-78
2022/10/23 07:38:50;;;;;;;0.40;0.40;;;13.00;1.00;;;;;;5082748;28;20228;-78
2022/10/23 07:41:15;;;;;;;0.50;0.50;;;12.90;1.00;;;;;;5075833;28;20286;-79
2022/10/23 07:43:41;;;;;;;0.40;0.40;;;12.50;1.00;;;;;;5081328;28;20265;-79
2022/10/23 07:46:08;;;;;;;0.50;0.50;;;12.40;50.60;;;;;;5075728;28;20180;-79
2022/10/23 07:48:35;;;;;;;0.40;0.40;;;12.20;73.60;;;;;;5079729;28;20285;-79
2022/10/23 07:51:06;;;;;;;0.40;0.40;;;12.20;99.90;;;;;;5071322;28;20866;-79
2022/10/23 07:53:33;;;;;;;0.43;0.43;;;12.90;41.80;;;;;;5071931;28;20233;-81
2022/10/23 07:56:01;;;;;;;0.40;0.40;;;13.30;1.00;;;;;;5070231;28;20268;-78
2022/10/23 07:58:28;;;;;;;0.40;0.40;;;13.70;1.00;;;;;;5071158;28;20650;-76
2022/10/23 08:00:57;;;;;;;0.30;0.30;;;14.20;1.00;;;;;;5069039;28;20210;-77
2022/10/23 08:03:27;;;;;;;0.30;0.30;;;14.60;1.00;;;;;;5078568;28;20667;-77
2022/10/23 08:05:54;;;;;;;0.40;0.40;;;14.60;1.00;;;;;;5067780;28;20187;-77
2022/10/23 08:08:20;;;;;;;0.30;0.30;;;14.50;1.00;;;;;;5067752;28;20202;-77
2022/10/23 08:10:47;;;;;;;0.40;0.40;;;14.70;1.00;;;;;;5064736;28;20199;-77
2022/10/23 08:13:13;;;;;;;0.40;0.40;;;14.50;1.00;;;;;;5080617;28;20278;-76
2022/10/23 08:15:40;;;;;;;0.47;0.47;;;14.60;1.00;;;;;;5081847;28;20228;-78
2022/10/23 08:18:06;;;;;;;0.40;0.40;;;14.60;1.00;;;;;;5068467;28;20652;-78
2022/10/23 08:20:36;;;;;;;0.30;0.30;;;15.10;1.00;;;;;;5085200;28;20217;-78
2022/10/23 08:23:01;;;;;;;0.30;0.30;;;16.00;1.00;;;;;;5075769;28;20201;-78
2022/10/23 08:25:27;;;;;;;0.40;0.40;;;16.60;1.00;;;;;;5078729;28;20181;-77
2022/10/23 08:27:52;;;;;;;0.33;0.33;;;17.50;99.90;;;;;;5072690;28;20194;-78
2022/10/23 08:30:18;;;;;;;0.40;0.40;;;17.70;1.00;;;;;;5071714;28;20202;-78
2022/10/23 08:32:43;;;;;;;0.30;0.30;;;17.80;1.00;;;;;;5068721;28;20178;-78
2022/10/23 08:35:09;;;;;;;0.40;0.40;;;18.30;1.00;;;;;;5070404;28;20214;-81
2022/10/23 08:37:34;;;;;;;0.50;0.50;;;18.30;1.00;;;;;;5078136;28;20213;-77
2022/10/23 08:40:00;;;;;;;0.60;0.60;;;18.30;99.90;;;;;;5079069;28;20235;-78
2022/10/23 08:42:26;;;;;;;0.53;0.53;;;17.90;99.90;;;;;;5076762;28;20183;-77
2022/10/23 08:45:15;;;;;;;0.40;0.40;;;17.60;1.00;;;;;;5070955;28;20300;-78
2022/10/23 08:47:47;;;;;;;0.40;0.40;;;17.50;99.90;;;;;;5077559;28;20179;-76
2022/10/23 08:50:31;;;;;;;0.50;0.50;;;17.20;99.90;;;;;;5070341;28;20204;-76
2022/10/23 08:52:59;;;;;;;0.40;0.40;;;16.70;99.90;;;;;;5077590;28;20246;-76
2022/10/23 08:55:37;;;;;;;0.47;0.47;;;16.40;1.00;;;;;;5070511;28;20261;-76
2022/10/23 08:58:05;;;;;;;0.40;0.40;;;17.30;1.00;;;;;;5067098;28;20201;-77
2022/10/23 09:00:31;;;;;;;0.47;0.47;;;17.70;1.00;;;;;;5067052;28;20181;-77
2022/10/23 09:03:02;;;;;;;0.47;0.47;;;17.70;1.00;;;;;;5077946;28;20658;-77
2022/10/23 09:05:44;;;;;;;0.40;0.40;;;17.40;1.00;;;;;;5075733;28;20178;-76
2022/10/23 09:08:30;;;;;;;0.53;0.53;;;18.10;1.00;;;;;;5070377;28;20213;-76
2022/10/23 09:11:26;;;;;;;0.47;0.47;;;19.10;99.90;;;;;;5072682;28;20288;-77
2022/10/23 09:14:27;;;;;;;0.60;0.60;;;20.40;99.90;;;;;;5063578;28;20599;-77
2022/10/23 09:17:13;;;;;;;0.50;0.50;;;20.70;99.90;;;;;;5066615;28;20178;-77
2022/10/23 09:19:44;;;;;;;0.60;0.60;;;21.10;99.90;;;;;;5070405;28;20166;-79
2022/10/23 09:22:11;;;;;;;0.40;0.40;;;21.40;83.90;;;;;;5071026;28;20671;-77
2022/10/23 09:24:40;;;;;;;0.60;0.60;;;21.50;1.00;;;;;;5063540;28;20197;-77
2022/10/23 09:27:14;;;;;;;0.60;0.60;;;21.90;1.00;;;;;;5064867;28;20175;-76
2022/10/23 09:29:46;;;;;;;0.57;0.57;;;22.10;1.00;;;;;;5073660;28;20676;-76
2022/10/23 09:32:12;;;;;;;0.60;0.60;;;22.20;1.00;;;;;;5074003;28;20552;-77
2022/10/23 09:34:51;;;;;;;0.40;0.40;;;22.30;1.00;;;;;;5078900;28;20187;-77
2022/10/23 09:37:24;;;;;;;0.30;0.30;;;22.80;1.00;;;;;;5074153;28;20189;-77
2022/10/23 09:40:06;;;;;;;0.53;0.53;;;23.60;1.00;;;;;;5073475;28;20179;-78
2022/10/23 09:42:31;;;;;;;0.50;0.50;;;23.60;1.00;;;;;;5074120;28;20171;-75
2022/10/23 09:44:57;;;;;;;0.40;0.40;;;23.50;1.00;;;;;;5073914;28;20182;-76
2022/10/23 09:47:24;;;;;;;0.40;0.40;;;23.40;1.00;;;;;;5073638;28;20209;-75
2022/10/23 09:49:55;;;;;;;0.47;0.47;;;23.50;1.00;;;;;;5073196;28;20218;-73
2022/10/23 09:52:24;;;;;;;0.40;0.40;;;23.30;1.00;;;;;;5072415;28;20205;-74
2022/10/23 09:54:54;;;;;;;0.50;0.50;;;22.50;1.00;;;;;;5064608;28;20198;-73
2022/10/23 09:57:31;;;;;;;0.60;0.60;;;22.90;1.00;;;;;;5073559;28;20178;-74
2022/10/23 10:00:05;;;;;;;0.50;0.50;;;23.50;1.00;;;;;;5074851;28;20186;-75
2022/10/23 10:02:35;;;;;;;0.50;0.50;;;24.40;1.00;;;;;;5071447;28;20273;-75
2022/10/23 10:05:24;;;;;;;0.40;0.40;;;24.60;1.00;;;;;;5074777;28;20577;-75
2022/10/23 10:07:57;;;;;;;0.60;0.60;;;24.70;1.00;;;;;;5075065;28;20525;-75
2022/10/23 10:10:27;;;;;;;0.53;0.53;;;24.40;1.00;;;;;;5074760;28;20723;-76
2022/10/23 10:13:00;;;;;;;0.37;0.37;;;23.90;1.00;;;;;;5073542;28;20205;-76
2022/10/23 10:15:33;;;;;;;0.40;0.40;;;23.40;1.00;;;;;;5076121;28;20721;-75
2022/10/23 10:18:15;;;;;;;0.60;0.60;;;23.60;1.00;;;;;;5070163;28;20190;-75
2022/10/23 10:20:47;;;;;;;0.40;0.40;;;23.30;1.00;;;;;;5073441;28;20442;-75
2022/10/23 10:23:52;;;;;;;0.60;0.60;;;22.00;1.00;;;;;;5074264;28;20463;-75
2022/10/23 10:26:24;;;;;;;0.70;0.70;;;21.60;1.00;;;;;;5071482;28;20191;-72
2022/10/23 10:29:04;;;;;;;0.70;0.70;;;21.90;1.00;;;;;;5066299;28;20233;-75
2022/10/23 10:31:52;;;;;;;0.60;0.60;;;22.00;1.00;;;;;;5056714;28;20214;-74
2022/10/23 10:34:36;;;;;;;0.50;0.50;;;23.00;1.00;;;;;;5064287;28;20578;-75
2022/10/23 10:37:26;;;;;;;0.70;0.70;;;23.50;1.00;;;;;;5072864;28;20236;-74
2022/10/23 10:40:09;;;;;;;0.50;0.50;;;23.70;1.00;;;;;;5072563;28;20181;-73
2022/10/23 10:42:57;;;;;;;0.50;0.50;;;23.70;1.00;;;;;;5072286;28;20380;-73
2022/10/23 10:45:31;;;;;;;0.50;0.50;;;23.50;1.00;;;;;;5072955;28;20194;-74
2022/10/23 10:48:38;;;;;;;0.60;0.60;;;23.40;1.00;;;;;;5072750;28;20185;-75
2022/10/23 10:51:18;;;;;;;0.50;0.50;;;22.70;1.00;;;;;;4970510;28;20745;-73
2022/10/23 10:53:55;;;;;;;0.40;0.40;;;22.10;1.00;;;;;;5065317;28;20586;-75
2022/10/23 10:56:25;;;;;;;0.50;0.50;;;21.70;1.00;;;;;;5072514;28;20591;-74
2022/10/23 10:58:55;;;;;;;0.50;0.50;;;21.40;1.00;;;;;;5072677;28;20254;-74
2022/10/23 11:01:25;;;;;;;0.40;0.40;;;21.30;1.00;;;;;;5071919;28;20225;-73
2022/10/23 11:03:56;;;;;;;0.40;0.40;;;21.10;1.00;;;;;;5072682;28;20650;-73
2022/10/23 11:06:26;;;;;;;0.40;0.40;;;21.40;1.00;;;;;;5072746;28;20258;-74
2022/10/23 11:08:51;;;;;;;0.50;0.50;;;21.70;1.00;;;;;;5072426;28;20194;-73
2022/10/23 11:11:23;;;;;;;0.40;0.40;;;21.90;1.00;;;;;;5072231;28;20206;-74
2022/10/23 11:13:50;;;;;;;0.50;0.50;;;21.40;1.00;;;;;;5072539;28;20194;-74
2022/10/23 11:16:29;;;;;;;0.60;0.60;;;21.00;1.00;;;;;;5072640;28;20186;-72
2022/10/23 11:19:06;;;;;;;0.40;0.40;;;20.50;99.90;;;;;;5072458;28;20514;-74
2022/10/23 11:21:41;;;;;;;0.30;0.30;;;20.20;99.90;;;;;;5071720;28;20186;-74
2022/10/23 11:24:24;;;;;;;0.40;0.40;;;20.00;99.90;;;;;;5072184;28;20736;-74
2022/10/23 11:27:17;;;;;;;0.50;0.50;;;20.00;1.00;;;;;;5072363;28;20257;-74
2022/10/23 11:30:03;;;;;;;0.30;0.30;;;19.90;1.00;;;;;;5071198;28;20301;-73
2022/10/23 11:32:48;;;;;;;0.40;0.40;;;19.80;1.00;;;;;;5071821;28;20170;-73
2022/10/23 11:35:22;;;;;;;0.47;0.47;;;19.50;99.90;;;;;;5072202;28;20213;-74
2022/10/23 11:38:16;;;;;;;0.40;0.40;;;19.50;1.00;;;;;;5071320;28;20174;-73
2022/10/23 11:40:52;;;;;;;0.40;0.40;;;19.50;99.90;;;;;;5055615;28;20717;-73
2022/10/23 11:43:35;;;;;;;0.40;0.40;;;19.50;99.90;;;;;;5072008;28;20178;-73
2022/10/23 11:46:22;;;;;;;0.43;0.43;;;19.50;26.00;;;;;;5072067;28;20193;-74
2022/10/23 11:48:49;;;;;;;0.40;0.40;;;19.40;99.90;;;;;;5062493;28;20209;-73
2022/10/23 11:51:35;;;;;;;0.40;0.40;;;19.40;1.00;;;;;;5070460;28;20671;-74
2022/10/23 11:54:06;;;;;;;0.40;0.40;;;19.60;99.90;;;;;;5071221;28;20186;-74
2022/10/23 11:56:33;;;;;;;0.40;0.40;;;20.30;99.90;;;;;;5071592;28;20537;-74
2022/10/23 11:59:18;;;;;;;0.30;0.30;;;20.70;1.00;;;;;;5071568;28;20186;-74
2022/10/23 12:01:44;;;;;;;0.30;0.30;;;20.90;1.00;;;;;;5070952;28;20210;-74
2022/10/23 12:04:12;;;;;;;0.40;0.40;;;20.80;99.90;;;;;;5072240;28;20189;-74
2022/10/23 12:06:41;;;;;;;0.30;0.30;;;20.60;99.90;;;;;;5071428;28;20178;-74
2022/10/23 12:09:24;;;;;;;0.30;0.30;;;20.60;99.90;;;;;;5071546;28;20297;-74
2022/10/23 12:12:02;;;;;;;0.40;0.40;;;20.90;99.90;;;;;;5071439;28;20202;-74
2022/10/23 12:14:34;;;;;;;0.40;0.40;;;21.00;99.90;;;;;;5071393;28;20174;-74
2022/10/23 12:17:01;;;;;;;0.40;0.40;;;21.30;99.90;;;;;;5071481;28;20182;-74
2022/10/23 12:19:29;;;;;;;0.30;0.30;;;21.50;99.90;;;;;;5071231;28;20216;-73
2022/10/23 12:22:00;;;;;;;0.33;0.33;;;21.70;99.90;;;;;;5071123;28;20277;-74
2022/10/23 12:24:41;;;;;;;0.40;0.40;;;21.30;99.90;;;;;;5071419;28;20653;-74
2022/10/23 12:27:38;;;;;;;0.30;0.30;;;21.20;99.90;;;;;;5071441;28;20666;-74
2022/10/23 12:30:19;;;;;;;0.30;0.30;;;21.00;1.00;;;;;;5070037;28;20721;-74
2022/10/23 12:33:18;;;;;;;0.40;0.40;;;21.40;99.90;;;;;;5071421;28;20235;-74
2022/10/23 12:36:08;;;;;;;0.40;0.40;;;21.20;99.90;;;;;;5071959;28;20186;-74
2022/10/23 12:38:46;;;;;;;0.30;0.30;;;21.50;99.90;;;;;;5057043;28;20188;-75
2022/10/23 12:41:23;;;;;;;0.30;0.30;;;21.90;99.90;;;;;;5070995;28;20218;-74
2022/10/23 12:44:01;;;;;;;0.30;0.30;;;21.60;99.90;;;;;;5071659;28;20189;-74
2022/10/23 12:46:38;;;;;;;0.40;0.40;;;21.60;99.90;;;;;;5071385;28;20276;-74
2022/10/23 12:49:13;;;;;;;0.40;0.40;;;22.30;99.90;;;;;;5060568;28;20609;-74
2022/10/23 12:51:39;;;;;;;0.40;0.40;;;22.80;99.90;;;;;;5070781;28;20232;-74
2022/10/23 12:54:15;;;;;;;0.40;0.40;;;23.60;1.00;;;;;;5070883;28;20199;-74
2022/10/23 12:56:43;;;;;;;0.40;0.40;;;24.00;1.00;;;;;;5071473;28;20189;-74
2022/10/23 12:59:15;;;;;;;0.40;0.40;;;25.00;1.00;;;;;;5070981;28;20174;-74
2022/10/23 13:01:41;;;;;;;0.40;0.40;;;26.00;1.00;;;;;;5070789;28;20191;-74
2022/10/23 13:04:09;;;;;;;0.50;0.50;;;25.80;1.00;;;;;;5069951;28;20189;-74
2022/10/23 13:06:35;;;;;;;0.50;0.50;;;26.50;1.00;;;;;;5054603;28;20186;-74
2022/10/23 13:09:02;;;;;;;0.50;0.50;;;27.10;1.00;;;;;;5070726;28;20211;-74
2022/10/23 13:11:29;;;;;;;0.57;0.57;;;27.40;1.00;;;;;;5070579;28;20202;-74
2022/10/23 13:13:55;;;;;;;0.50;0.50;;;27.10;1.00;;;;;;5070992;28;20218;-74